sensor_id;sensor_type;location;lat;lon;timestamp;temperature;humidity
69895;DHT22;57172;52.034;5.090;2023-05-06T00:01:21;14.50;84.10
69895;DHT22;57172;52.034;5.090;2023-05-06T00:03:49;14.50;84.00
69895;DHT22;57172;52.034;5.090;2023-05-06T00:06:17;14.50;84.00
69895;DHT22;57172;52.034;5.090;2023-05-06T00:08:44;14.50;83.90
69895;DHT22;57172;52.034;5.090;2023-05-06T00:11:12;14.40;84.00
69895;DHT22;57172;52.034;5.090;2023-05-06T00:13:40;14.40;83.90
69895;DHT22;57172;52.034;5.090;2023-05-06T00:16:07;14.40;83.70
69895;DHT22;57172;52.034;5.090;2023-05-06T00:18:34;14.40;83.70
69895;DHT22;57172;52.034;5.090;2023-05-06T00:21:00;14.30;83.40
69895;DHT22;57172;52.034;5.090;2023-05-06T00:23:27;14.30;83.20
69895;DHT22;57172;52.034;5.090;2023-05-06T00:25:54;14.20;83.00
69895;DHT22;57172;52.034;5.090;2023-05-06T00:28:21;14.10;82.90
69895;DHT22;57172;52.034;5.090;2023-05-06T00:30:48;14.00;83.00
69895;DHT22;57172;52.034;5.090;2023-05-06T00:33:15;13.90;83.10
69895;DHT22;57172;52.034;5.090;2023-05-06T00:35:42;13.90;83.20
69895;DHT22;57172;52.034;5.090;2023-05-06T00:38:11;13.80;83.20
69895;DHT22;57172;52.034;5.090;2023-05-06T00:40:39;13.70;83.40
69895;DHT22;57172;52.034;5.090;2023-05-06T00:43:07;13.70;83.40
69895;DHT22;57172;52.034;5.090;2023-05-06T00:45:35;13.70;83.40
69895;DHT22;57172;52.034;5.090;2023-05-06T00:48:04;13.60;83.40
69895;DHT22;57172;52.034;5.090;2023-05-06T00:50:33;13.60;83.50
69895;DHT22;57172;52.034;5.090;2023-05-06T00:53:02;13.50;83.50
69895;DHT22;57172;52.034;5.090;2023-05-06T00:55:30;13.50;83.60
69895;DHT22;57172;52.034;5.090;2023-05-06T00:57:57;13.40;83.60
69895;DHT22;57172;52.034;5.090;2023-05-06T01:00:24;13.40;83.60
69895;DHT22;57172;52.034;5.090;2023-05-06T01:02:52;13.30;83.60
69895;DHT22;57172;52.034;5.090;2023-05-06T01:05:20;13.30;83.60
69895;DHT22;57172;52.034;5.090;2023-05-06T01:07:54;13.20;83.50
69895;DHT22;57172;52.034;5.090;2023-05-06T01:10:56;13.20;83.50
69895;DHT22;57172;52.034;5.090;2023-05-06T01:13:46;13.20;83.50
69895;DHT22;57172;52.034;5.090;2023-05-06T01:16:13;13.10;83.50
69895;DHT22;57172;52.034;5.090;2023-05-06T01:18:42;13.10;83.60
69895;DHT22;57172;52.034;5.090;2023-05-06T01:21:10;13.00;83.70
69895;DHT22;57172;52.034;5.090;2023-05-06T01:23:55;13.00;83.90
69895;DHT22;57172;52.034;5.090;2023-05-06T01:26:24;12.90;84.00
69895;DHT22;57172;52.034;5.090;2023-05-06T01:28:51;12.90;84.20
69895;DHT22;57172;52.034;5.090;2023-05-06T01:31:26;12.90;84.10
69895;DHT22;57172;52.034;5.090;2023-05-06T01:34:14;12.90;84.00
69895;DHT22;57172;52.034;5.090;2023-05-06T01:36:57;12.90;84.00
69895;DHT22;57172;52.034;5.090;2023-05-06T01:39:29;12.80;84.10
69895;DHT22;57172;52.034;5.090;2023-05-06T01:41:59;12.80;84.00
69895;DHT22;57172;52.034;5.090;2023-05-06T01:44:31;12.80;84.00
69895;DHT22;57172;52.034;5.090;2023-05-06T01:46:59;12.70;84.00
69895;DHT22;57172;52.034;5.090;2023-05-06T01:49:28;12.70;83.90
69895;DHT22;57172;52.034;5.090;2023-05-06T01:51:55;12.70;84.00
69895;DHT22;57172;52.034;5.090;2023-05-06T01:54:23;12.60;84.10
69895;DHT22;57172;52.034;5.090;2023-05-06T01:56:51;12.60;84.10
69895;DHT22;57172;52.034;5.090;2023-05-06T01:59:19;12.60;84.20
69895;DHT22;57172;52.034;5.090;2023-05-06T02:01:45;12.60;84.30
69895;DHT22;57172;52.034;5.090;2023-05-06T02:04:13;12.60;84.40
69895;DHT22;57172;52.034;5.090;2023-05-06T02:06:40;12.50;84.40
69895;DHT22;57172;52.034;5.090;2023-05-06T02:09:07;12.50;84.50
69895;DHT22;57172;52.034;5.090;2023-05-06T02:11:39;12.50;84.60
69895;DHT22;57172;52.034;5.090;2023-05-06T02:14:06;12.50;84.60
69895;DHT22;57172;52.034;5.090;2023-05-06T02:16:34;12.50;84.60
69895;DHT22;57172;52.034;5.090;2023-05-06T02:19:01;12.50;84.50
69895;DHT22;57172;52.034;5.090;2023-05-06T02:21:29;12.50;84.60
69895;DHT22;57172;52.034;5.090;2023-05-06T02:23:56;12.50;84.70
69895;DHT22;57172;52.034;5.090;2023-05-06T02:26:24;12.50;84.70
69895;DHT22;57172;52.034;5.090;2023-05-06T02:28:51;12.40;84.80
69895;DHT22;57172;52.034;5.090;2023-05-06T02:31:18;12.40;84.70
69895;DHT22;57172;52.034;5.090;2023-05-06T02:33:46;12.40;84.80
69895;DHT22;57172;52.034;5.090;2023-05-06T02:36:13;12.40;84.90
69895;DHT22;57172;52.034;5.090;2023-05-06T02:38:40;12.40;85.10
69895;DHT22;57172;52.034;5.090;2023-05-06T02:41:07;12.40;85.10
69895;DHT22;57172;52.034;5.090;2023-05-06T02:43:34;12.40;85.10
69895;DHT22;57172;52.034;5.090;2023-05-06T02:46:01;12.40;85.00
69895;DHT22;57172;52.034;5.090;2023-05-06T02:48:28;12.40;85.00
69895;DHT22;57172;52.034;5.090;2023-05-06T02:50:55;12.40;84.90
69895;DHT22;57172;52.034;5.090;2023-05-06T02:53:22;12.30;84.80
69895;DHT22;57172;52.034;5.090;2023-05-06T02:55:49;12.30;84.80
69895;DHT22;57172;52.034;5.090;2023-05-06T02:58:16;12.30;84.80
69895;DHT22;57172;52.034;5.090;2023-05-06T03:00:43;12.30;84.80
69895;DHT22;57172;52.034;5.090;2023-05-06T03:03:10;12.20;84.90
69895;DHT22;57172;52.034;5.090;2023-05-06T03:05:37;12.20;85.00
69895;DHT22;57172;52.034;5.090;2023-05-06T03:08:05;12.20;85.20
69895;DHT22;57172;52.034;5.090;2023-05-06T03:10:33;12.20;85.40
69895;DHT22;57172;52.034;5.090;2023-05-06T03:13:01;12.10;85.60
69895;DHT22;57172;52.034;5.090;2023-05-06T03:15:28;12.10;85.50
69895;DHT22;57172;52.034;5.090;2023-05-06T03:17:55;12.10;85.70
69895;DHT22;57172;52.034;5.090;2023-05-06T03:20:23;12.10;85.60
69895;DHT22;57172;52.034;5.090;2023-05-06T03:22:54;12.10;85.60
69895;DHT22;57172;52.034;5.090;2023-05-06T03:25:22;12.10;85.80
69895;DHT22;57172;52.034;5.090;2023-05-06T03:27:48;12.10;85.90
69895;DHT22;57172;52.034;5.090;2023-05-06T03:30:18;12.10;85.80
69895;DHT22;57172;52.034;5.090;2023-05-06T03:32:47;12.10;85.60
69895;DHT22;57172;52.034;5.090;2023-05-06T03:35:22;12.10;85.80
69895;DHT22;57172;52.034;5.090;2023-05-06T03:37:53;12.10;85.90
69895;DHT22;57172;52.034;5.090;2023-05-06T03:40:22;12.00;86.00
69895;DHT22;57172;52.034;5.090;2023-05-06T03:42:50;12.00;86.00
69895;DHT22;57172;52.034;5.090;2023-05-06T03:45:18;12.00;85.80
69895;DHT22;57172;52.034;5.090;2023-05-06T03:47:45;12.00;85.60
69895;DHT22;57172;52.034;5.090;2023-05-06T03:50:13;12.00;85.70
69895;DHT22;57172;52.034;5.090;2023-05-06T03:52:41;12.00;85.60
69895;DHT22;57172;52.034;5.090;2023-05-06T03:55:08;11.90;85.60
69895;DHT22;57172;52.034;5.090;2023-05-06T03:57:36;11.90;85.60
69895;DHT22;57172;52.034;5.090;2023-05-06T04:00:05;11.90;85.60
69895;DHT22;57172;52.034;5.090;2023-05-06T04:02:41;11.90;85.50
69895;DHT22;57172;52.034;5.090;2023-05-06T04:05:16;11.90;85.50
69895;DHT22;57172;52.034;5.090;2023-05-06T04:07:44;11.90;85.50
69895;DHT22;57172;52.034;5.090;2023-05-06T04:10:11;11.90;85.80
69895;DHT22;57172;52.034;5.090;2023-05-06T04:12:41;11.90;85.90
69895;DHT22;57172;52.034;5.090;2023-05-06T04:15:09;11.80;86.20
69895;DHT22;57172;52.034;5.090;2023-05-06T04:17:37;11.90;86.40
69895;DHT22;57172;52.034;5.090;2023-05-06T04:20:05;11.90;86.50
69895;DHT22;57172;52.034;5.090;2023-05-06T04:22:38;11.90;86.50
69895;DHT22;57172;52.034;5.090;2023-05-06T04:25:06;11.90;86.60
69895;DHT22;57172;52.034;5.090;2023-05-06T04:27:36;11.90;86.70
69895;DHT22;57172;52.034;5.090;2023-05-06T04:30:06;12.00;86.70
69895;DHT22;57172;52.034;5.090;2023-05-06T04:32:35;12.00;86.80
69895;DHT22;57172;52.034;5.090;2023-05-06T04:35:04;12.00;87.20
69895;DHT22;57172;52.034;5.090;2023-05-06T04:37:31;12.10;87.50
69895;DHT22;57172;52.034;5.090;2023-05-06T04:40:07;12.10;87.90
69895;DHT22;57172;52.034;5.090;2023-05-06T04:42:37;12.20;88.00
69895;DHT22;57172;52.034;5.090;2023-05-06T04:45:11;12.30;88.40
69895;DHT22;57172;52.034;5.090;2023-05-06T04:47:41;12.30;88.50
69895;DHT22;57172;52.034;5.090;2023-05-06T04:50:09;12.40;88.60
69895;DHT22;57172;52.034;5.090;2023-05-06T04:52:36;12.50;88.60
69895;DHT22;57172;52.034;5.090;2023-05-06T04:55:04;12.50;88.60
69895;DHT22;57172;52.034;5.090;2023-05-06T04:57:33;12.60;88.80
69895;DHT22;57172;52.034;5.090;2023-05-06T05:00:01;12.60;89.20
69895;DHT22;57172;52.034;5.090;2023-05-06T05:02:29;12.70;89.50
69895;DHT22;57172;52.034;5.090;2023-05-06T05:04:56;12.80;89.50
69895;DHT22;57172;52.034;5.090;2023-05-06T05:07:23;12.90;89.60
69895;DHT22;57172;52.034;5.090;2023-05-06T05:09:50;13.00;89.50
69895;DHT22;57172;52.034;5.090;2023-05-06T05:12:17;13.00;89.60
69895;DHT22;57172;52.034;5.090;2023-05-06T05:14:47;13.10;89.50
69895;DHT22;57172;52.034;5.090;2023-05-06T05:17:14;13.20;89.30
69895;DHT22;57172;52.034;5.090;2023-05-06T05:19:41;13.30;89.20
69895;DHT22;57172;52.034;5.090;2023-05-06T05:22:09;13.30;88.90
69895;DHT22;57172;52.034;5.090;2023-05-06T05:24:37;13.40;88.70
69895;DHT22;57172;52.034;5.090;2023-05-06T05:27:04;13.40;88.50
69895;DHT22;57172;52.034;5.090;2023-05-06T05:29:31;13.40;88.50
69895;DHT22;57172;52.034;5.090;2023-05-06T05:32:01;13.40;88.50
69895;DHT22;57172;52.034;5.090;2023-05-06T05:34:29;13.50;88.60
69895;DHT22;57172;52.034;5.090;2023-05-06T05:36:56;13.50;88.50
69895;DHT22;57172;52.034;5.090;2023-05-06T05:39:24;13.60;88.30
69895;DHT22;57172;52.034;5.090;2023-05-06T05:41:52;13.60;88.00
69895;DHT22;57172;52.034;5.090;2023-05-06T05:44:19;13.60;87.90
69895;DHT22;57172;52.034;5.090;2023-05-06T05:46:47;13.60;87.90
69895;DHT22;57172;52.034;5.090;2023-05-06T05:49:17;13.70;88.10
69895;DHT22;57172;52.034;5.090;2023-05-06T05:51:44;13.70;88.00
69895;DHT22;57172;52.034;5.090;2023-05-06T05:54:14;13.70;88.00
69895;DHT22;57172;52.034;5.090;2023-05-06T05:56:42;13.80;88.20
69895;DHT22;57172;52.034;5.090;2023-05-06T05:59:09;13.80;88.20
69895;DHT22;57172;52.034;5.090;2023-05-06T06:01:41;13.90;88.00
69895;DHT22;57172;52.034;5.090;2023-05-06T06:04:14;14.00;87.80
69895;DHT22;57172;52.034;5.090;2023-05-06T06:06:41;14.00;87.90
69895;DHT22;57172;52.034;5.090;2023-05-06T06:09:09;14.10;88.00
69895;DHT22;57172;52.034;5.090;2023-05-06T06:11:37;14.10;88.10
69895;DHT22;57172;52.034;5.090;2023-05-06T06:14:06;14.10;88.10
69895;DHT22;57172;52.034;5.090;2023-05-06T06:16:35;14.20;88.10
69895;DHT22;57172;52.034;5.090;2023-05-06T06:19:02;14.20;88.20
69895;DHT22;57172;52.034;5.090;2023-05-06T06:21:29;14.30;88.30
69895;DHT22;57172;52.034;5.090;2023-05-06T06:23:56;14.40;87.90
69895;DHT22;57172;52.034;5.090;2023-05-06T06:26:23;14.40;87.30
69895;DHT22;57172;52.034;5.090;2023-05-06T06:28:50;14.40;87.40
69895;DHT22;57172;52.034;5.090;2023-05-06T06:31:17;14.40;87.00
69895;DHT22;57172;52.034;5.090;2023-05-06T06:33:44;14.40;87.30
69895;DHT22;57172;52.034;5.090;2023-05-06T06:36:11;14.40;87.70
69895;DHT22;57172;52.034;5.090;2023-05-06T06:38:39;14.50;87.70
69895;DHT22;57172;52.034;5.090;2023-05-06T06:41:07;14.60;87.80
69895;DHT22;57172;52.034;5.090;2023-05-06T06:43:34;14.60;88.00
69895;DHT22;57172;52.034;5.090;2023-05-06T06:46:09;14.70;88.30
69895;DHT22;57172;52.034;5.090;2023-05-06T06:48:36;14.80;88.40
69895;DHT22;57172;52.034;5.090;2023-05-06T06:51:03;14.90;88.70
69895;DHT22;57172;52.034;5.090;2023-05-06T06:53:30;15.10;88.50
69895;DHT22;57172;52.034;5.090;2023-05-06T06:55:57;15.20;88.60
69895;DHT22;57172;52.034;5.090;2023-05-06T06:58:24;15.40;88.60
69895;DHT22;57172;52.034;5.090;2023-05-06T07:00:51;15.50;88.50
69895;DHT22;57172;52.034;5.090;2023-05-06T07:03:18;15.70;88.30
69895;DHT22;57172;52.034;5.090;2023-05-06T07:05:45;15.90;88.40
69895;DHT22;57172;52.034;5.090;2023-05-06T07:08:12;16.10;88.30
69895;DHT22;57172;52.034;5.090;2023-05-06T07:10:39;16.20;88.20
69895;DHT22;57172;52.034;5.090;2023-05-06T07:13:06;16.40;87.90
69895;DHT22;57172;52.034;5.090;2023-05-06T07:15:32;16.60;87.30
69895;DHT22;57172;52.034;5.090;2023-05-06T07:17:59;16.70;86.60
69895;DHT22;57172;52.034;5.090;2023-05-06T07:20:26;16.80;86.70
69895;DHT22;57172;52.034;5.090;2023-05-06T07:22:53;16.90;86.20
69895;DHT22;57172;52.034;5.090;2023-05-06T07:25:20;17.10;85.70
69895;DHT22;57172;52.034;5.090;2023-05-06T07:27:47;17.10;84.90
69895;DHT22;57172;52.034;5.090;2023-05-06T07:30:15;17.10;84.90
69895;DHT22;57172;52.034;5.090;2023-05-06T07:32:41;17.10;85.80
69895;DHT22;57172;52.034;5.090;2023-05-06T07:35:09;17.30;86.20
69895;DHT22;57172;52.034;5.090;2023-05-06T07:37:36;17.40;85.80
69895;DHT22;57172;52.034;5.090;2023-05-06T07:40:03;17.50;86.10
69895;DHT22;57172;52.034;5.090;2023-05-06T07:42:31;17.60;86.60
69895;DHT22;57172;52.034;5.090;2023-05-06T07:44:57;17.80;86.80
69895;DHT22;57172;52.034;5.090;2023-05-06T07:47:27;18.00;86.60
69895;DHT22;57172;52.034;5.090;2023-05-06T07:49:55;18.20;86.40
69895;DHT22;57172;52.034;5.090;2023-05-06T07:52:25;18.40;85.80
69895;DHT22;57172;52.034;5.090;2023-05-06T07:54:53;18.60;85.50
69895;DHT22;57172;52.034;5.090;2023-05-06T07:57:20;18.80;84.90
69895;DHT22;57172;52.034;5.090;2023-05-06T07:59:49;18.90;83.70
69895;DHT22;57172;52.034;5.090;2023-05-06T08:02:16;19.00;83.80
69895;DHT22;57172;52.034;5.090;2023-05-06T08:04:44;19.00;84.70
69895;DHT22;57172;52.034;5.090;2023-05-06T08:07:11;19.20;85.90
69895;DHT22;57172;52.034;5.090;2023-05-06T08:09:38;19.40;86.50
69895;DHT22;57172;52.034;5.090;2023-05-06T08:12:05;19.70;86.90
69895;DHT22;57172;52.034;5.090;2023-05-06T08:14:31;20.10;86.50
69895;DHT22;57172;52.034;5.090;2023-05-06T08:16:58;20.50;86.80
69895;DHT22;57172;52.034;5.090;2023-05-06T08:19:25;20.80;87.40
69895;DHT22;57172;52.034;5.090;2023-05-06T08:21:52;21.00;88.00
69895;DHT22;57172;52.034;5.090;2023-05-06T08:24:19;21.20;89.00
69895;DHT22;57172;52.034;5.090;2023-05-06T08:26:46;21.50;87.40
69895;DHT22;57172;52.034;5.090;2023-05-06T08:29:13;21.90;89.70
69895;DHT22;57172;52.034;5.090;2023-05-06T08:31:40;22.40;89.70
69895;DHT22;57172;52.034;5.090;2023-05-06T08:34:07;22.90;92.30
69895;DHT22;57172;52.034;5.090;2023-05-06T08:36:34;23.50;93.30
69895;DHT22;57172;52.034;5.090;2023-05-06T08:39:01;24.00;87.80
69895;DHT22;57172;52.034;5.090;2023-05-06T08:41:28;24.30;83.90
69895;DHT22;57172;52.034;5.090;2023-05-06T08:43:56;24.60;85.40
69895;DHT22;57172;52.034;5.090;2023-05-06T08:46:24;24.90;86.70
69895;DHT22;57172;52.034;5.090;2023-05-06T08:48:52;25.40;85.90
69895;DHT22;57172;52.034;5.090;2023-05-06T08:51:24;25.90;84.50
69895;DHT22;57172;52.034;5.090;2023-05-06T08:53:54;26.40;81.10
69895;DHT22;57172;52.034;5.090;2023-05-06T08:56:23;26.90;78.80
69895;DHT22;57172;52.034;5.090;2023-05-06T08:58:53;27.20;76.10
69895;DHT22;57172;52.034;5.090;2023-05-06T09:01:21;27.40;76.10
69895;DHT22;57172;52.034;5.090;2023-05-06T09:03:48;27.30;71.50
69895;DHT22;57172;52.034;5.090;2023-05-06T09:06:15;27.10;70.00
69895;DHT22;57172;52.034;5.090;2023-05-06T09:08:42;26.80;68.10
69895;DHT22;57172;52.034;5.090;2023-05-06T09:11:23;26.40;68.90
69895;DHT22;57172;52.034;5.090;2023-05-06T09:13:51;26.20;67.70
69895;DHT22;57172;52.034;5.090;2023-05-06T09:16:32;26.20;70.80
69895;DHT22;57172;52.034;5.090;2023-05-06T09:18:59;25.90;69.90
69895;DHT22;57172;52.034;5.090;2023-05-06T09:21:35;25.80;69.80
69895;DHT22;57172;52.034;5.090;2023-05-06T09:24:04;25.80;68.70
69895;DHT22;57172;52.034;5.090;2023-05-06T09:26:33;25.70;68.70
69895;DHT22;57172;52.034;5.090;2023-05-06T09:29:01;25.70;70.30
69895;DHT22;57172;52.034;5.090;2023-05-06T09:31:28;25.90;74.20
69895;DHT22;57172;52.034;5.090;2023-05-06T09:33:58;26.40;76.40
69895;DHT22;57172;52.034;5.090;2023-05-06T09:36:26;26.90;74.70
69895;DHT22;57172;52.034;5.090;2023-05-06T09:38:55;27.30;76.10
69895;DHT22;57172;52.034;5.090;2023-05-06T09:41:23;27.80;73.10
69895;DHT22;57172;52.034;5.090;2023-05-06T09:43:55;28.10;71.60
69895;DHT22;57172;52.034;5.090;2023-05-06T09:46:23;28.00;69.90
69895;DHT22;57172;52.034;5.090;2023-05-06T09:48:52;28.20;73.20
69895;DHT22;57172;52.034;5.090;2023-05-06T09:51:20;28.50;72.80
69895;DHT22;57172;52.034;5.090;2023-05-06T09:53:47;28.90;72.50
69895;DHT22;57172;52.034;5.090;2023-05-06T09:56:15;29.40;71.50
69895;DHT22;57172;52.034;5.090;2023-05-06T09:58:42;29.80;71.30
69895;DHT22;57172;52.034;5.090;2023-05-06T10:01:10;30.30;71.50
69895;DHT22;57172;52.034;5.090;2023-05-06T10:03:52;30.40;67.10
69895;DHT22;57172;52.034;5.090;2023-05-06T10:06:22;30.30;65.20
69895;DHT22;57172;52.034;5.090;2023-05-06T10:08:50;30.10;63.60
69895;DHT22;57172;52.034;5.090;2023-05-06T10:11:18;30.00;63.50
69895;DHT22;57172;52.034;5.090;2023-05-06T10:13:47;29.80;62.50
69895;DHT22;57172;52.034;5.090;2023-05-06T10:16:15;29.50;62.10
69895;DHT22;57172;52.034;5.090;2023-05-06T10:18:44;29.10;63.70
69895;DHT22;57172;52.034;5.090;2023-05-06T10:21:19;29.10;63.50
69895;DHT22;57172;52.034;5.090;2023-05-06T10:23:56;29.10;63.30
69895;DHT22;57172;52.034;5.090;2023-05-06T10:26:26;29.50;64.70
69895;DHT22;57172;52.034;5.090;2023-05-06T10:28:55;29.80;65.80
69895;DHT22;57172;52.034;5.090;2023-05-06T10:31:22;30.00;66.80
69895;DHT22;57172;52.034;5.090;2023-05-06T10:33:51;30.30;67.60
69895;DHT22;57172;52.034;5.090;2023-05-06T10:36:24;30.50;63.00
69895;DHT22;57172;52.034;5.090;2023-05-06T10:38:55;30.10;62.20
69895;DHT22;57172;52.034;5.090;2023-05-06T10:41:24;30.00;66.10
69895;DHT22;57172;52.034;5.090;2023-05-06T10:43:55;30.30;66.00
69895;DHT22;57172;52.034;5.090;2023-05-06T10:46:24;30.50;64.80
69895;DHT22;57172;52.034;5.090;2023-05-06T10:51:45;30.80;61.90
69895;DHT22;57172;52.034;5.090;2023-05-06T10:59:24;32.00;62.70
69895;DHT22;57172;52.034;5.090;2023-05-06T11:02:06;32.30;59.90
69895;DHT22;57172;52.034;5.090;2023-05-06T11:04:33;32.10;57.50
69895;DHT22;57172;52.034;5.090;2023-05-06T11:07:11;32.00;60.80
69895;DHT22;57172;52.034;5.090;2023-05-06T11:12:22;32.00;60.40
69895;DHT22;57172;52.034;5.090;2023-05-06T11:15:37;32.00;60.40
69895;DHT22;57172;52.034;5.090;2023-05-06T11:18:39;31.60;55.80
69895;DHT22;57172;52.034;5.090;2023-05-06T11:26:15;31.20;59.30
69895;DHT22;57172;52.034;5.090;2023-05-06T11:28:43;31.20;59.40
69895;DHT22;57172;52.034;5.090;2023-05-06T11:31:12;30.90;56.60
69895;DHT22;57172;52.034;5.090;2023-05-06T11:33:49;30.40;61.00
69895;DHT22;57172;52.034;5.090;2023-05-06T11:36:20;30.50;59.50
69895;DHT22;57172;52.034;5.090;2023-05-06T11:38:49;30.50;59.70
69895;DHT22;57172;52.034;5.090;2023-05-06T11:41:17;30.00;59.40
69895;DHT22;57172;52.034;5.090;2023-05-06T11:43:49;29.60;60.30
69895;DHT22;57172;52.034;5.090;2023-05-06T11:46:20;29.50;60.60
69895;DHT22;57172;52.034;5.090;2023-05-06T11:48:48;29.80;62.00
69895;DHT22;57172;52.034;5.090;2023-05-06T11:51:21;30.20;62.30
69895;DHT22;57172;52.034;5.090;2023-05-06T11:53:48;30.50;56.30
69895;DHT22;57172;52.034;5.090;2023-05-06T11:56:14;30.60;55.80
69895;DHT22;57172;52.034;5.090;2023-05-06T11:58:42;30.40;54.00
69895;DHT22;57172;52.034;5.090;2023-05-06T12:01:09;29.90;54.70
69895;DHT22;57172;52.034;5.090;2023-05-06T12:03:36;29.80;55.20
69895;DHT22;57172;52.034;5.090;2023-05-06T12:06:03;29.90;52.80
69895;DHT22;57172;52.034;5.090;2023-05-06T12:08:32;29.40;50.90
69895;DHT22;57172;52.034;5.090;2023-05-06T12:11:04;29.00;54.40
69895;DHT22;57172;52.034;5.090;2023-05-06T12:13:32;29.10;52.90
69895;DHT22;57172;52.034;5.090;2023-05-06T12:16:03;29.00;52.40
69895;DHT22;57172;52.034;5.090;2023-05-06T12:18:30;29.10;53.50
69895;DHT22;57172;52.034;5.090;2023-05-06T12:21:00;29.40;55.70
69895;DHT22;57172;52.034;5.090;2023-05-06T12:23:28;30.00;55.40
69895;DHT22;57172;52.034;5.090;2023-05-06T12:26:03;30.70;54.60
69895;DHT22;57172;52.034;5.090;2023-05-06T12:28:32;31.00;48.90
69895;DHT22;57172;52.034;5.090;2023-05-06T12:31:00;31.30;51.00
69895;DHT22;57172;52.034;5.090;2023-05-06T12:33:43;31.30;48.90
69895;DHT22;57172;52.034;5.090;2023-05-06T12:36:19;31.20;49.80
69895;DHT22;57172;52.034;5.090;2023-05-06T12:41:18;30.60;47.60
69895;DHT22;57172;52.034;5.090;2023-05-06T12:43:45;30.20;48.50
69895;DHT22;57172;52.034;5.090;2023-05-06T12:46:14;29.90;49.00
69895;DHT22;57172;52.034;5.090;2023-05-06T12:49:01;29.60;48.60
69895;DHT22;57172;52.034;5.090;2023-05-06T12:51:29;29.40;49.90
69895;DHT22;57172;52.034;5.090;2023-05-06T12:53:56;29.60;52.20
69895;DHT22;57172;52.034;5.090;2023-05-06T12:56:23;29.70;48.50
69895;DHT22;57172;52.034;5.090;2023-05-06T12:59:01;29.20;47.80
69895;DHT22;57172;52.034;5.090;2023-05-06T13:01:27;28.80;49.60
69895;DHT22;57172;52.034;5.090;2023-05-06T13:03:55;29.10;53.10
69895;DHT22;57172;52.034;5.090;2023-05-06T13:06:23;29.60;52.00
69895;DHT22;57172;52.034;5.090;2023-05-06T13:08:50;29.70;49.80
69895;DHT22;57172;52.034;5.090;2023-05-06T13:11:16;29.60;49.60
69895;DHT22;57172;52.034;5.090;2023-05-06T13:13:43;29.50;49.90
69895;DHT22;57172;52.034;5.090;2023-05-06T13:16:10;29.50;49.60
69895;DHT22;57172;52.034;5.090;2023-05-06T13:18:37;29.20;47.10
69895;DHT22;57172;52.034;5.090;2023-05-06T13:21:04;28.80;47.70
69895;DHT22;57172;52.034;5.090;2023-05-06T13:23:31;28.40;49.70
69895;DHT22;57172;52.034;5.090;2023-05-06T13:26:00;28.40;49.80
69895;DHT22;57172;52.034;5.090;2023-05-06T13:28:32;28.40;47.40
69895;DHT22;57172;52.034;5.090;2023-05-06T13:31:02;28.20;50.10
69895;DHT22;57172;52.034;5.090;2023-05-06T13:33:29;28.30;49.60
69895;DHT22;57172;52.034;5.090;2023-05-06T13:35:56;28.40;51.10
69895;DHT22;57172;52.034;5.090;2023-05-06T13:38:23;28.80;51.40
69895;DHT22;57172;52.034;5.090;2023-05-06T13:40:50;29.00;50.20
69895;DHT22;57172;52.034;5.090;2023-05-06T13:43:18;28.90;48.30
69895;DHT22;57172;52.034;5.090;2023-05-06T13:45:45;28.40;46.30
69895;DHT22;57172;52.034;5.090;2023-05-06T13:48:12;27.90;45.60
69895;DHT22;57172;52.034;5.090;2023-05-06T13:50:43;27.30;47.30
69895;DHT22;57172;52.034;5.090;2023-05-06T13:53:12;27.00;49.70
69895;DHT22;57172;52.034;5.090;2023-05-06T13:55:39;27.20;51.10
69895;DHT22;57172;52.034;5.090;2023-05-06T13:58:06;27.70;53.40
69895;DHT22;57172;52.034;5.090;2023-05-06T14:00:34;28.20;53.70
69895;DHT22;57172;52.034;5.090;2023-05-06T14:03:01;28.60;52.20
69895;DHT22;57172;52.034;5.090;2023-05-06T14:05:29;29.00;52.20
69895;DHT22;57172;52.034;5.090;2023-05-06T14:07:56;29.40;50.70
69895;DHT22;57172;52.034;5.090;2023-05-06T14:10:23;29.60;50.20
69895;DHT22;57172;52.034;5.090;2023-05-06T14:12:49;29.70;49.00
69895;DHT22;57172;52.034;5.090;2023-05-06T14:15:17;29.70;49.60
69895;DHT22;57172;52.034;5.090;2023-05-06T14:17:44;29.80;50.10
69895;DHT22;57172;52.034;5.090;2023-05-06T14:20:11;29.80;50.30
69895;DHT22;57172;52.034;5.090;2023-05-06T14:22:41;29.80;49.20
69895;DHT22;57172;52.034;5.090;2023-05-06T14:25:08;29.60;48.40
69895;DHT22;57172;52.034;5.090;2023-05-06T14:27:36;29.50;48.80
69895;DHT22;57172;52.034;5.090;2023-05-06T14:30:03;29.30;49.50
69895;DHT22;57172;52.034;5.090;2023-05-06T14:32:34;29.10;49.30
69895;DHT22;57172;52.034;5.090;2023-05-06T14:35:01;29.00;48.70
69895;DHT22;57172;52.034;5.090;2023-05-06T14:37:28;28.90;49.40
69895;DHT22;57172;52.034;5.090;2023-05-06T14:39:56;28.80;48.20
69895;DHT22;57172;52.034;5.090;2023-05-06T14:42:23;28.70;48.70
69895;DHT22;57172;52.034;5.090;2023-05-06T14:44:49;28.50;46.90
69895;DHT22;57172;52.034;5.090;2023-05-06T14:47:17;28.20;47.30
69895;DHT22;57172;52.034;5.090;2023-05-06T14:49:43;27.70;48.00
69895;DHT22;57172;52.034;5.090;2023-05-06T14:52:10;27.20;47.10
69895;DHT22;57172;52.034;5.090;2023-05-06T14:54:37;26.80;49.10
69895;DHT22;57172;52.034;5.090;2023-05-06T14:57:09;26.40;48.10
69895;DHT22;57172;52.034;5.090;2023-05-06T14:59:36;26.10;47.50
69895;DHT22;57172;52.034;5.090;2023-05-06T15:02:06;25.90;48.80
69895;DHT22;57172;52.034;5.090;2023-05-06T15:04:34;25.60;50.30
69895;DHT22;57172;52.034;5.090;2023-05-06T15:07:01;25.40;49.20
69895;DHT22;57172;52.034;5.090;2023-05-06T15:09:29;25.20;50.40
69895;DHT22;57172;52.034;5.090;2023-05-06T15:11:56;25.10;52.60
69895;DHT22;57172;52.034;5.090;2023-05-06T15:14:23;25.10;52.30
69895;DHT22;57172;52.034;5.090;2023-05-06T15:16:54;25.10;51.80
69895;DHT22;57172;52.034;5.090;2023-05-06T15:19:21;25.20;51.90
69895;DHT22;57172;52.034;5.090;2023-05-06T15:21:48;25.10;50.40
69895;DHT22;57172;52.034;5.090;2023-05-06T15:24:15;25.10;51.50
69895;DHT22;57172;52.034;5.090;2023-05-06T15:26:42;25.00;51.90
69895;DHT22;57172;52.034;5.090;2023-05-06T15:29:17;24.90;51.70
69895;DHT22;57172;52.034;5.090;2023-05-06T15:31:44;24.80;50.60
69895;DHT22;57172;52.034;5.090;2023-05-06T15:34:12;24.80;50.60
69895;DHT22;57172;52.034;5.090;2023-05-06T15:36:39;24.80;51.30
69895;DHT22;57172;52.034;5.090;2023-05-06T15:39:09;24.90;51.10
69895;DHT22;57172;52.034;5.090;2023-05-06T15:41:37;24.80;52.60
69895;DHT22;57172;52.034;5.090;2023-05-06T15:44:04;24.70;51.70
69895;DHT22;57172;52.034;5.090;2023-05-06T15:46:32;24.50;51.30
69895;DHT22;57172;52.034;5.090;2023-05-06T15:48:59;24.40;51.00
69895;DHT22;57172;52.034;5.090;2023-05-06T15:51:29;24.40;52.30
69895;DHT22;57172;52.034;5.090;2023-05-06T15:53:56;24.50;50.50
69895;DHT22;57172;52.034;5.090;2023-05-06T15:56:23;24.50;50.70
69895;DHT22;57172;52.034;5.090;2023-05-06T15:58:53;24.40;50.80